createdAt,value
2017-12-29T11:13:06.499Z,47.30
2017-12-29T11:15:35.061Z,47.40
2017-12-29T11:18:03.956Z,48.80
2017-12-29T11:20:32.931Z,47.90
2017-12-29T11:23:01.024Z,47.90
2017-12-29T11:25:29.326Z,48.10
2017-12-29T11:27:57.445Z,47.80
2017-12-29T11:30:25.556Z,47.80
2017-12-29T11:32:53.791Z,47.90
2017-12-29T11:35:22.790Z,48.60
2017-12-29T11:37:50.908Z,48.60
2017-12-29T11:40:19.420Z,48.20
2017-12-29T11:42:47.590Z,48.10
2017-12-29T11:45:16.818Z,47.70
2017-12-29T11:47:44.998Z,48.30
2017-12-29T11:50:13.098Z,48.50
2017-12-29T11:52:41.224Z,48.90
2017-12-29T11:55:10.588Z,49.00
2017-12-29T11:57:38.696Z,48.50
2017-12-29T12:00:07.583Z,49.20
2017-12-29T12:02:36.522Z,50.30
2017-12-29T12:05:04.637Z,49.00
2017-12-29T12:09:22.424Z,49.20
2017-12-29T12:11:50.590Z,35.00
2017-12-29T12:14:22.762Z,42.40
2017-12-29T12:16:50.902Z,37.10
2017-12-29T12:19:19.900Z,45.10
2017-12-29T12:21:48.807Z,50.60
2017-12-29T12:24:18.525Z,55.20
2017-12-29T12:26:46.780Z,54.00
2017-12-29T12:29:15.662Z,56.10
2017-12-29T12:31:43.767Z,55.40
2017-12-29T12:34:11.886Z,56.20
2017-12-29T12:36:40.000Z,56.00
2017-12-29T12:39:09.015Z,57.30
2017-12-29T12:41:37.365Z,56.70
2017-12-29T12:44:05.562Z,59.30
2017-12-29T12:46:33.735Z,58.40
2017-12-29T12:49:01.881Z,58.80
2017-12-29T12:51:29.994Z,61.70
2017-12-29T12:53:58.872Z,62.30
2017-12-29T12:56:26.994Z,60.90
2017-12-29T12:58:55.109Z,61.80
2017-12-29T13:01:23.987Z,60.60
2017-12-29T13:03:52.868Z,60.10
2017-12-29T13:06:21.770Z,60.60
2017-12-29T13:08:54.674Z,58.90
2017-12-29T13:11:23.179Z,55.30
2017-12-29T13:13:51.346Z,54.00
2017-12-29T13:16:19.646Z,54.00
2017-12-29T13:18:47.844Z,53.50
2017-12-29T13:21:16.006Z,55.80
2017-12-29T13:23:44.206Z,54.10
2017-12-29T13:26:12.320Z,55.60
2017-12-29T13:28:40.469Z,54.90
2017-12-29T13:31:09.355Z,57.70
2017-12-29T13:33:38.306Z,58.60
2017-12-29T13:36:06.684Z,57.80
2017-12-29T13:38:34.817Z,58.20
2017-12-29T13:41:02.951Z,57.30
2017-12-29T13:43:31.061Z,56.90
2017-12-29T13:46:00.323Z,68.90
2017-12-29T13:48:28.478Z,68.10
2017-12-29T13:50:56.677Z,72.80
2017-12-29T13:53:25.093Z,76.00
2017-12-29T13:55:57.126Z,78.10
2017-12-29T14:21:10.583Z,54.50
2017-12-29T14:26:55.493Z,53.80
2017-12-29T14:29:24.081Z,52.80
2017-12-29T14:31:53.316Z,52.50
2017-12-29T14:34:22.240Z,57.40
2017-12-29T14:37:46.470Z,58.70
2017-12-29T15:46:42.824Z,24.80
2017-12-29T15:49:11.631Z,35.90
2017-12-29T15:51:40.431Z,36.70
2017-12-29T15:54:08.641Z,46.40
2017-12-29T15:56:39.109Z,55.60
2017-12-29T15:59:07.308Z,55.50
2017-12-29T16:01:38.608Z,58.50
2017-12-29T16:04:06.846Z,60.70
2017-12-29T16:06:35.850Z,63.00
2017-12-29T16:09:04.070Z,62.80
2017-12-29T16:11:32.260Z,65.00
2017-12-29T16:14:00.345Z,65.10
2017-12-29T16:16:28.838Z,65.90
2017-12-29T16:18:57.752Z,69.60
2017-12-29T16:21:25.844Z,69.50
2017-12-29T16:23:53.965Z,68.30
2017-12-29T16:26:22.067Z,67.50
2017-12-29T16:28:51.262Z,68.70
2017-12-29T16:31:19.566Z,67.80
2017-12-29T16:33:47.689Z,69.20
2017-12-29T16:36:15.802Z,69.50
2017-12-29T16:38:43.977Z,68.60
2017-12-29T16:41:12.076Z,69.20
2017-12-29T16:43:40.352Z,68.70
2017-12-29T16:46:08.557Z,69.00
2017-12-29T16:48:36.693Z,68.90
2017-12-29T16:51:04.813Z,68.60
2017-12-29T16:53:32.943Z,69.00
2017-12-29T16:56:01.166Z,67.30
2017-12-29T16:58:30.017Z,68.90
2017-12-29T17:00:58.869Z,68.60
2017-12-29T17:03:26.967Z,68.10
2017-12-29T17:05:55.081Z,66.90
2017-12-29T17:08:23.171Z,68.50
2017-12-29T17:10:51.307Z,67.40
2017-12-29T17:13:19.468Z,66.70
2017-12-29T17:15:47.626Z,68.40
2017-12-29T17:18:15.736Z,68.50
2017-12-29T17:20:44.485Z,67.90
2017-12-29T17:23:12.600Z,67.90
2017-12-29T17:25:40.775Z,67.00
2017-12-29T17:28:09.246Z,65.20
2017-12-29T17:30:37.677Z,66.30
2017-12-29T17:33:05.768Z,65.30
2017-12-29T17:35:33.874Z,66.00
2017-12-29T17:38:02.762Z,66.10
2017-12-29T17:40:30.900Z,66.10
2017-12-29T17:42:59.085Z,65.90
2017-12-29T17:45:27.181Z,65.50
2017-12-29T17:47:55.295Z,66.60
2017-12-29T17:50:23.397Z,65.80
2017-12-29T17:52:51.525Z,65.60
2017-12-29T17:55:20.651Z,66.40
2017-12-29T17:57:49.075Z,66.50
2017-12-29T18:00:17.313Z,65.80
2017-12-29T18:02:45.639Z,64.40
2017-12-29T18:05:13.797Z,66.40
2017-12-29T18:07:41.905Z,65.60
2017-12-29T18:10:10.758Z,66.40
2017-12-29T18:12:39.223Z,65.40
2017-12-29T18:15:07.775Z,65.10
2017-12-29T18:17:36.174Z,66.00
2017-12-29T18:20:04.438Z,66.60
2017-12-29T18:22:32.585Z,65.50
2017-12-29T18:25:01.036Z,65.60
2017-12-29T18:27:29.546Z,62.40
2017-12-29T18:29:57.800Z,62.30
2017-12-29T18:32:26.155Z,61.60
2017-12-29T18:34:54.472Z,61.50
2017-12-29T18:37:22.872Z,61.00
2017-12-29T18:39:51.734Z,63.40
2017-12-29T18:42:20.529Z,63.20
2017-12-29T18:44:49.723Z,65.00
2017-12-29T18:47:17.859Z,63.50
2017-12-29T18:49:46.218Z,66.20
2017-12-29T18:52:14.504Z,64.80
2017-12-29T18:54:43.035Z,66.10
2017-12-29T18:57:11.838Z,64.90
2017-12-29T18:59:39.948Z,65.10
2017-12-29T19:02:08.671Z,65.30
2017-12-29T19:04:36.980Z,66.20
2017-12-29T19:07:05.802Z,65.10
2017-12-29T19:09:33.949Z,65.70
2017-12-29T19:12:02.158Z,65.90
2017-12-29T19:14:30.668Z,65.80
2017-12-29T19:17:00.707Z,67.50
2017-12-29T19:22:33.907Z,68.10
2017-12-29T19:25:02.004Z,69.90
2017-12-29T19:27:30.179Z,69.20
2017-12-29T19:29:58.560Z,69.50
2017-12-29T19:32:26.661Z,68.80
2017-12-29T19:34:54.779Z,69.00
2017-12-29T19:37:22.899Z,69.30
2017-12-29T19:39:51.206Z,68.60
2017-12-29T19:42:19.323Z,68.40
2017-12-29T19:44:47.474Z,68.50
2017-12-29T19:47:15.724Z,69.10
2017-12-29T19:49:44.849Z,68.70
2017-12-29T19:52:12.953Z,68.40
2017-12-29T19:54:42.140Z,67.90
2017-12-29T19:57:10.438Z,67.90
2017-12-29T19:59:39.221Z,68.40
2017-12-29T20:02:07.310Z,67.80
2017-12-29T20:04:35.414Z,68.60
2017-12-29T20:07:03.510Z,68.90
2017-12-29T20:09:31.654Z,67.80
2017-12-29T20:12:00.554Z,67.10
2017-12-29T20:14:29.647Z,67.10
2017-12-29T20:16:57.812Z,67.00
2017-12-29T20:19:25.995Z,64.50
2017-12-29T20:21:54.110Z,66.20
